sensor_id;sensor_type;location;lat;lon;timestamp;temperature;humidity
4755;DHT22;2391;47.212;7.542;2024-03-06T00:00:55;9.80;96.90
4755;DHT22;2391;47.212;7.542;2024-03-06T00:03:21;9.80;96.80
4755;DHT22;2391;47.212;7.542;2024-03-06T00:05:47;9.80;96.70
4755;DHT22;2391;47.212;7.542;2024-03-06T00:08:13;9.80;96.70
4755;DHT22;2391;47.212;7.542;2024-03-06T00:10:40;9.70;96.70
4755;DHT22;2391;47.212;7.542;2024-03-06T00:13:07;9.60;96.80
4755;DHT22;2391;47.212;7.542;2024-03-06T00:15:33;9.60;96.90
4755;DHT22;2391;47.212;7.542;2024-03-06T00:17:59;9.60;96.70
4755;DHT22;2391;47.212;7.542;2024-03-06T00:20:26;9.50;96.70
4755;DHT22;2391;47.212;7.542;2024-03-06T00:22:52;9.40;96.90
4755;DHT22;2391;47.212;7.542;2024-03-06T00:25:18;9.40;97.10
4755;DHT22;2391;47.212;7.542;2024-03-06T00:27:44;9.40;97.00
4755;DHT22;2391;47.212;7.542;2024-03-06T00:30:10;9.40;97.00
4755;DHT22;2391;47.212;7.542;2024-03-06T00:32:36;9.30;96.90
4755;DHT22;2391;47.212;7.542;2024-03-06T00:35:04;9.30;97.10
4755;DHT22;2391;47.212;7.542;2024-03-06T00:37:29;9.30;97.10
4755;DHT22;2391;47.212;7.542;2024-03-06T00:39:55;9.30;97.20
4755;DHT22;2391;47.212;7.542;2024-03-06T00:42:21;9.30;97.10
4755;DHT22;2391;47.212;7.542;2024-03-06T00:44:47;9.10;97.10
4755;DHT22;2391;47.212;7.542;2024-03-06T00:47:13;8.90;97.50
4755;DHT22;2391;47.212;7.542;2024-03-06T00:49:39;8.60;97.90
4755;DHT22;2391;47.212;7.542;2024-03-06T00:52:04;8.60;98.10
4755;DHT22;2391;47.212;7.542;2024-03-06T00:54:30;8.70;98.30
4755;DHT22;2391;47.212;7.542;2024-03-06T00:56:57;8.80;98.20
4755;DHT22;2391;47.212;7.542;2024-03-06T00:59:23;8.90;98.00
4755;DHT22;2391;47.212;7.542;2024-03-06T01:01:49;8.90;97.80
4755;DHT22;2391;47.212;7.542;2024-03-06T01:04:15;8.90;97.90
4755;DHT22;2391;47.212;7.542;2024-03-06T01:06:41;9.00;98.00
4755;DHT22;2391;47.212;7.542;2024-03-06T01:09:07;9.10;98.00
4755;DHT22;2391;47.212;7.542;2024-03-06T01:11:33;9.20;97.80
4755;DHT22;2391;47.212;7.542;2024-03-06T01:13:59;9.20;97.70
4755;DHT22;2391;47.212;7.542;2024-03-06T01:16:25;9.30;97.60
4755;DHT22;2391;47.212;7.542;2024-03-06T01:18:51;9.30;97.60
4755;DHT22;2391;47.212;7.542;2024-03-06T01:21:17;9.40;97.70
4755;DHT22;2391;47.212;7.542;2024-03-06T01:23:42;9.40;97.60
4755;DHT22;2391;47.212;7.542;2024-03-06T01:26:08;9.40;97.60
4755;DHT22;2391;47.212;7.542;2024-03-06T01:28:34;9.40;97.30
4755;DHT22;2391;47.212;7.542;2024-03-06T01:31:02;9.50;97.30
4755;DHT22;2391;47.212;7.542;2024-03-06T01:33:28;9.50;97.30
4755;DHT22;2391;47.212;7.542;2024-03-06T01:35:54;9.50;97.30
4755;DHT22;2391;47.212;7.542;2024-03-06T01:38:19;9.50;97.30
4755;DHT22;2391;47.212;7.542;2024-03-06T01:40:45;9.50;97.30
4755;DHT22;2391;47.212;7.542;2024-03-06T01:43:23;9.50;97.40
4755;DHT22;2391;47.212;7.542;2024-03-06T01:45:50;9.40;97.50
4755;DHT22;2391;47.212;7.542;2024-03-06T01:48:17;9.40;97.40
4755;DHT22;2391;47.212;7.542;2024-03-06T01:50:44;9.40;97.40
4755;DHT22;2391;47.212;7.542;2024-03-06T01:53:10;9.40;97.50
4755;DHT22;2391;47.212;7.542;2024-03-06T01:55:37;9.40;97.50
4755;DHT22;2391;47.212;7.542;2024-03-06T01:58:03;9.40;97.60
4755;DHT22;2391;47.212;7.542;2024-03-06T02:00:29;9.40;97.50
4755;DHT22;2391;47.212;7.542;2024-03-06T02:02:55;9.50;97.50
4755;DHT22;2391;47.212;7.542;2024-03-06T02:05:21;9.50;97.40
4755;DHT22;2391;47.212;7.542;2024-03-06T02:07:47;9.50;97.30
4755;DHT22;2391;47.212;7.542;2024-03-06T02:10:14;9.50;97.30
4755;DHT22;2391;47.212;7.542;2024-03-06T02:12:41;9.50;97.20
4755;DHT22;2391;47.212;7.542;2024-03-06T02:15:07;9.50;97.40
4755;DHT22;2391;47.212;7.542;2024-03-06T02:17:34;9.40;97.40
4755;DHT22;2391;47.212;7.542;2024-03-06T02:20:01;9.40;97.40
4755;DHT22;2391;47.212;7.542;2024-03-06T02:22:29;9.40;97.50
4755;DHT22;2391;47.212;7.542;2024-03-06T02:24:55;9.40;97.50
4755;DHT22;2391;47.212;7.542;2024-03-06T02:27:21;9.40;97.30
4755;DHT22;2391;47.212;7.542;2024-03-06T02:29:46;9.40;97.20
4755;DHT22;2391;47.212;7.542;2024-03-06T02:32:12;9.50;97.20
4755;DHT22;2391;47.212;7.542;2024-03-06T02:34:40;9.50;97.30
4755;DHT22;2391;47.212;7.542;2024-03-06T02:37:06;9.50;97.20
4755;DHT22;2391;47.212;7.542;2024-03-06T02:39:32;9.50;97.30
4755;DHT22;2391;47.212;7.542;2024-03-06T02:41:58;9.50;97.40
4755;DHT22;2391;47.212;7.542;2024-03-06T02:44:23;9.40;97.50
4755;DHT22;2391;47.212;7.542;2024-03-06T02:46:50;9.40;97.70
4755;DHT22;2391;47.212;7.542;2024-03-06T02:49:17;9.40;97.40
4755;DHT22;2391;47.212;7.542;2024-03-06T02:51:43;9.40;97.30
4755;DHT22;2391;47.212;7.542;2024-03-06T02:54:09;9.50;97.40
4755;DHT22;2391;47.212;7.542;2024-03-06T02:56:35;9.40;97.30
4755;DHT22;2391;47.212;7.542;2024-03-06T02:59:01;9.50;97.50
4755;DHT22;2391;47.212;7.542;2024-03-06T03:01:29;9.40;97.50
4755;DHT22;2391;47.212;7.542;2024-03-06T03:03:56;9.40;97.30
4755;DHT22;2391;47.212;7.542;2024-03-06T03:06:21;9.40;97.20
4755;DHT22;2391;47.212;7.542;2024-03-06T03:08:49;9.50;97.20
4755;DHT22;2391;47.212;7.542;2024-03-06T03:11:15;9.40;97.20
4755;DHT22;2391;47.212;7.542;2024-03-06T03:13:42;9.50;97.30
4755;DHT22;2391;47.212;7.542;2024-03-06T03:16:19;9.40;97.20
4755;DHT22;2391;47.212;7.542;2024-03-06T03:18:46;9.40;97.30
4755;DHT22;2391;47.212;7.542;2024-03-06T03:21:12;9.40;97.20
4755;DHT22;2391;47.212;7.542;2024-03-06T03:23:39;9.30;97.40
4755;DHT22;2391;47.212;7.542;2024-03-06T03:26:07;9.30;97.40
4755;DHT22;2391;47.212;7.542;2024-03-06T03:28:38;9.40;97.50
4755;DHT22;2391;47.212;7.542;2024-03-06T03:31:10;9.40;97.50
4755;DHT22;2391;47.212;7.542;2024-03-06T03:33:40;9.40;97.50
4755;DHT22;2391;47.212;7.542;2024-03-06T03:36:07;9.40;97.60
4755;DHT22;2391;47.212;7.542;2024-03-06T03:38:35;9.30;97.60
4755;DHT22;2391;47.212;7.542;2024-03-06T03:41:08;9.30;97.60
4755;DHT22;2391;47.212;7.542;2024-03-06T03:43:34;9.30;97.60
4755;DHT22;2391;47.212;7.542;2024-03-06T03:46:00;9.30;97.60
4755;DHT22;2391;47.212;7.542;2024-03-06T03:48:25;9.30;97.60
4755;DHT22;2391;47.212;7.542;2024-03-06T03:50:51;9.40;97.60
4755;DHT22;2391;47.212;7.542;2024-03-06T03:53:17;9.30;97.60
4755;DHT22;2391;47.212;7.542;2024-03-06T03:55:43;9.30;97.70
4755;DHT22;2391;47.212;7.542;2024-03-06T03:58:09;9.30;97.70
4755;DHT22;2391;47.212;7.542;2024-03-06T04:00:34;9.30;97.80
4755;DHT22;2391;47.212;7.542;2024-03-06T04:03:00;9.30;97.70
4755;DHT22;2391;47.212;7.542;2024-03-06T04:05:26;9.40;97.70
4755;DHT22;2391;47.212;7.542;2024-03-06T04:07:52;9.40;97.70
4755;DHT22;2391;47.212;7.542;2024-03-06T04:10:18;9.40;97.60
4755;DHT22;2391;47.212;7.542;2024-03-06T04:12:44;9.40;97.60
4755;DHT22;2391;47.212;7.542;2024-03-06T04:15:10;9.40;97.40
4755;DHT22;2391;47.212;7.542;2024-03-06T04:17:36;9.40;97.50
4755;DHT22;2391;47.212;7.542;2024-03-06T04:20:02;9.40;97.60
4755;DHT22;2391;47.212;7.542;2024-03-06T04:22:29;9.40;97.60
4755;DHT22;2391;47.212;7.542;2024-03-06T04:24:55;9.50;97.80
4755;DHT22;2391;47.212;7.542;2024-03-06T04:27:22;9.40;97.80
4755;DHT22;2391;47.212;7.542;2024-03-06T04:29:48;9.40;97.80
4755;DHT22;2391;47.212;7.542;2024-03-06T04:32:13;9.40;97.80
4755;DHT22;2391;47.212;7.542;2024-03-06T04:34:39;9.40;97.70
4755;DHT22;2391;47.212;7.542;2024-03-06T04:37:05;9.40;97.70
4755;DHT22;2391;47.212;7.542;2024-03-06T04:39:32;9.40;97.70
4755;DHT22;2391;47.212;7.542;2024-03-06T04:41:58;9.40;97.70
4755;DHT22;2391;47.212;7.542;2024-03-06T04:44:24;9.40;97.80
4755;DHT22;2391;47.212;7.542;2024-03-06T04:46:50;9.40;97.80
4755;DHT22;2391;47.212;7.542;2024-03-06T04:49:16;9.50;97.70
4755;DHT22;2391;47.212;7.542;2024-03-06T04:51:42;9.50;97.70
4755;DHT22;2391;47.212;7.542;2024-03-06T04:54:08;9.50;97.70
4755;DHT22;2391;47.212;7.542;2024-03-06T04:56:34;9.50;97.70
4755;DHT22;2391;47.212;7.542;2024-03-06T04:59:00;9.50;97.60
4755;DHT22;2391;47.212;7.542;2024-03-06T05:01:29;9.50;97.90
4755;DHT22;2391;47.212;7.542;2024-03-06T05:03:56;9.50;97.90
4755;DHT22;2391;47.212;7.542;2024-03-06T05:06:22;9.50;98.20
4755;DHT22;2391;47.212;7.542;2024-03-06T05:08:48;9.50;97.80
4755;DHT22;2391;47.212;7.542;2024-03-06T05:11:14;9.50;97.80
4755;DHT22;2391;47.212;7.542;2024-03-06T05:13:40;9.40;97.80
4755;DHT22;2391;47.212;7.542;2024-03-06T05:16:06;9.40;97.90
4755;DHT22;2391;47.212;7.542;2024-03-06T05:18:34;9.40;98.10
4755;DHT22;2391;47.212;7.542;2024-03-06T05:21:01;9.40;98.10
4755;DHT22;2391;47.212;7.542;2024-03-06T05:23:27;9.30;98.00
4755;DHT22;2391;47.212;7.542;2024-03-06T05:25:53;9.30;98.10
4755;DHT22;2391;47.212;7.542;2024-03-06T05:28:21;9.30;98.10
4755;DHT22;2391;47.212;7.542;2024-03-06T05:30:46;9.30;98.10
4755;DHT22;2391;47.212;7.542;2024-03-06T05:33:13;9.40;98.10
4755;DHT22;2391;47.212;7.542;2024-03-06T05:35:39;9.40;97.90
4755;DHT22;2391;47.212;7.542;2024-03-06T05:38:05;9.40;97.70
4755;DHT22;2391;47.212;7.542;2024-03-06T05:40:32;9.50;97.70
4755;DHT22;2391;47.212;7.542;2024-03-06T05:43:00;9.40;97.70
4755;DHT22;2391;47.212;7.542;2024-03-06T05:45:26;9.50;97.70
4755;DHT22;2391;47.212;7.542;2024-03-06T05:47:52;9.50;97.80
4755;DHT22;2391;47.212;7.542;2024-03-06T05:50:18;9.40;97.80
4755;DHT22;2391;47.212;7.542;2024-03-06T05:52:44;9.50;97.80
4755;DHT22;2391;47.212;7.542;2024-03-06T05:55:10;9.50;97.70
4755;DHT22;2391;47.212;7.542;2024-03-06T05:57:36;9.50;97.50
4755;DHT22;2391;47.212;7.542;2024-03-06T06:00:02;9.50;97.60
4755;DHT22;2391;47.212;7.542;2024-03-06T06:02:30;9.60;97.70
4755;DHT22;2391;47.212;7.542;2024-03-06T06:04:56;9.60;97.70
4755;DHT22;2391;47.212;7.542;2024-03-06T06:07:22;9.60;97.50
4755;DHT22;2391;47.212;7.542;2024-03-06T06:09:48;9.60;97.50
4755;DHT22;2391;47.212;7.542;2024-03-06T06:12:14;9.60;97.30
4755;DHT22;2391;47.212;7.542;2024-03-06T06:14:40;9.50;97.40
4755;DHT22;2391;47.212;7.542;2024-03-06T06:17:06;9.50;97.50
4755;DHT22;2391;47.212;7.542;2024-03-06T06:19:35;9.50;97.40
4755;DHT22;2391;47.212;7.542;2024-03-06T06:22:01;9.50;97.40
4755;DHT22;2391;47.212;7.542;2024-03-06T06:24:27;9.50;97.20
4755;DHT22;2391;47.212;7.542;2024-03-06T06:26:53;9.50;97.40
4755;DHT22;2391;47.212;7.542;2024-03-06T06:29:19;9.50;97.40
4755;DHT22;2391;47.212;7.542;2024-03-06T06:31:45;9.50;97.40
4755;DHT22;2391;47.212;7.542;2024-03-06T06:34:11;9.50;97.40
4755;DHT22;2391;47.212;7.542;2024-03-06T06:36:37;9.60;97.40
4755;DHT22;2391;47.212;7.542;2024-03-06T06:39:03;9.60;97.20
4755;DHT22;2391;47.212;7.542;2024-03-06T06:41:31;9.60;97.00
4755;DHT22;2391;47.212;7.542;2024-03-06T06:43:57;9.50;96.80
4755;DHT22;2391;47.212;7.542;2024-03-06T06:46:22;9.30;96.90
4755;DHT22;2391;47.212;7.542;2024-03-06T06:48:48;9.20;97.20
4755;DHT22;2391;47.212;7.542;2024-03-06T06:51:14;9.20;97.00
4755;DHT22;2391;47.212;7.542;2024-03-06T06:53:40;9.10;97.20
4755;DHT22;2391;47.212;7.542;2024-03-06T06:56:09;9.10;97.20
4755;DHT22;2391;47.212;7.542;2024-03-06T06:58:35;8.90;97.30
4755;DHT22;2391;47.212;7.542;2024-03-06T07:01:00;8.90;97.50
4755;DHT22;2391;47.212;7.542;2024-03-06T07:03:26;8.80;97.80
4755;DHT22;2391;47.212;7.542;2024-03-06T07:05:54;8.70;98.00
4755;DHT22;2391;47.212;7.542;2024-03-06T07:08:20;8.70;98.00
4755;DHT22;2391;47.212;7.542;2024-03-06T07:10:46;8.70;98.10
4755;DHT22;2391;47.212;7.542;2024-03-06T07:13:12;8.70;98.10
4755;DHT22;2391;47.212;7.542;2024-03-06T07:15:38;8.80;98.00
4755;DHT22;2391;47.212;7.542;2024-03-06T07:18:04;8.80;98.00
4755;DHT22;2391;47.212;7.542;2024-03-06T07:20:30;8.70;97.90
4755;DHT22;2391;47.212;7.542;2024-03-06T07:22:57;8.70;98.00
4755;DHT22;2391;47.212;7.542;2024-03-06T07:25:23;8.70;98.10
4755;DHT22;2391;47.212;7.542;2024-03-06T07:27:49;8.70;98.00
4755;DHT22;2391;47.212;7.542;2024-03-06T07:30:15;8.80;98.00
4755;DHT22;2391;47.212;7.542;2024-03-06T07:32:42;8.70;98.00
4755;DHT22;2391;47.212;7.542;2024-03-06T07:35:08;8.70;98.00
4755;DHT22;2391;47.212;7.542;2024-03-06T07:37:33;8.70;98.10
4755;DHT22;2391;47.212;7.542;2024-03-06T07:39:59;8.60;98.10
4755;DHT22;2391;47.212;7.542;2024-03-06T07:42:26;8.60;98.20
4755;DHT22;2391;47.212;7.542;2024-03-06T07:44:51;8.50;98.20
4755;DHT22;2391;47.212;7.542;2024-03-06T07:47:17;8.50;98.20
4755;DHT22;2391;47.212;7.542;2024-03-06T07:49:43;8.50;98.50
4755;DHT22;2391;47.212;7.542;2024-03-06T07:52:10;8.50;98.60
4755;DHT22;2391;47.212;7.542;2024-03-06T07:54:36;8.50;98.80
4755;DHT22;2391;47.212;7.542;2024-03-06T07:57:02;8.50;98.80
4755;DHT22;2391;47.212;7.542;2024-03-06T07:59:27;8.60;98.90
4755;DHT22;2391;47.212;7.542;2024-03-06T08:01:53;8.70;98.80
4755;DHT22;2391;47.212;7.542;2024-03-06T08:04:22;8.80;98.80
4755;DHT22;2391;47.212;7.542;2024-03-06T08:06:49;8.80;98.80
4755;DHT22;2391;47.212;7.542;2024-03-06T08:09:15;8.90;98.70
4755;DHT22;2391;47.212;7.542;2024-03-06T08:11:42;8.90;98.70
4755;DHT22;2391;47.212;7.542;2024-03-06T08:14:08;8.80;98.80
4755;DHT22;2391;47.212;7.542;2024-03-06T08:16:34;8.70;99.00
4755;DHT22;2391;47.212;7.542;2024-03-06T08:19:00;8.60;99.40
4755;DHT22;2391;47.212;7.542;2024-03-06T08:21:26;8.70;99.10
4755;DHT22;2391;47.212;7.542;2024-03-06T08:23:51;8.70;99.00
4755;DHT22;2391;47.212;7.542;2024-03-06T08:26:18;8.80;99.10
4755;DHT22;2391;47.212;7.542;2024-03-06T08:28:44;8.80;99.00
4755;DHT22;2391;47.212;7.542;2024-03-06T08:31:09;8.80;98.90
4755;DHT22;2391;47.212;7.542;2024-03-06T08:33:35;8.70;99.20
4755;DHT22;2391;47.212;7.542;2024-03-06T08:36:01;8.70;99.30
4755;DHT22;2391;47.212;7.542;2024-03-06T08:38:28;8.70;99.70
4755;DHT22;2391;47.212;7.542;2024-03-06T08:40:54;8.80;99.70
4755;DHT22;2391;47.212;7.542;2024-03-06T08:43:20;8.80;99.40
4755;DHT22;2391;47.212;7.542;2024-03-06T08:45:46;8.80;99.50
4755;DHT22;2391;47.212;7.542;2024-03-06T08:48:11;8.80;99.50
4755;DHT22;2391;47.212;7.542;2024-03-06T08:50:38;8.90;99.40
4755;DHT22;2391;47.212;7.542;2024-03-06T08:53:04;9.00;99.40
4755;DHT22;2391;47.212;7.542;2024-03-06T08:55:30;9.10;99.30
4755;DHT22;2391;47.212;7.542;2024-03-06T08:57:56;9.10;99.10
4755;DHT22;2391;47.212;7.542;2024-03-06T09:00:22;9.10;99.40
4755;DHT22;2391;47.212;7.542;2024-03-06T09:02:47;9.10;99.10
4755;DHT22;2391;47.212;7.542;2024-03-06T09:05:13;9.10;99.00
4755;DHT22;2391;47.212;7.542;2024-03-06T09:07:39;9.00;99.30
4755;DHT22;2391;47.212;7.542;2024-03-06T09:10:12;9.00;99.30
4755;DHT22;2391;47.212;7.542;2024-03-06T09:12:39;9.00;99.60
4755;DHT22;2391;47.212;7.542;2024-03-06T09:15:05;9.10;99.50
4755;DHT22;2391;47.212;7.542;2024-03-06T09:17:34;9.20;99.40
4755;DHT22;2391;47.212;7.542;2024-03-06T09:20:00;9.20;99.70
4755;DHT22;2391;47.212;7.542;2024-03-06T09:22:28;9.10;99.90
4755;DHT22;2391;47.212;7.542;2024-03-06T09:24:54;9.10;99.70
4755;DHT22;2391;47.212;7.542;2024-03-06T09:27:20;9.20;99.30
4755;DHT22;2391;47.212;7.542;2024-03-06T09:29:45;9.20;99.20
4755;DHT22;2391;47.212;7.542;2024-03-06T09:32:12;9.10;99.30
4755;DHT22;2391;47.212;7.542;2024-03-06T09:34:39;8.90;99.50
4755;DHT22;2391;47.212;7.542;2024-03-06T09:37:05;8.90;99.80
4755;DHT22;2391;47.212;7.542;2024-03-06T09:39:31;8.90;99.90
4755;DHT22;2391;47.212;7.542;2024-03-06T09:41:57;9.00;99.80
4755;DHT22;2391;47.212;7.542;2024-03-06T09:44:25;9.00;99.90
4755;DHT22;2391;47.212;7.542;2024-03-06T09:46:50;9.00;99.80
4755;DHT22;2391;47.212;7.542;2024-03-06T09:49:18;9.00;99.90
4755;DHT22;2391;47.212;7.542;2024-03-06T09:51:49;9.10;99.90
4755;DHT22;2391;47.212;7.542;2024-03-06T09:54:19;9.20;99.70
4755;DHT22;2391;47.212;7.542;2024-03-06T09:56:47;9.20;99.60
4755;DHT22;2391;47.212;7.542;2024-03-06T09:59:14;9.30;99.90
4755;DHT22;2391;47.212;7.542;2024-03-06T10:01:52;9.30;99.10
4755;DHT22;2391;47.212;7.542;2024-03-06T10:04:23;9.20;98.80
4755;DHT22;2391;47.212;7.542;2024-03-06T10:06:55;9.10;98.90
4755;DHT22;2391;47.212;7.542;2024-03-06T10:09:21;9.00;99.50
4755;DHT22;2391;47.212;7.542;2024-03-06T10:11:47;9.00;99.80
4755;DHT22;2391;47.212;7.542;2024-03-06T10:14:13;9.00;99.90
4755;DHT22;2391;47.212;7.542;2024-03-06T10:16:58;9.00;99.90
4755;DHT22;2391;47.212;7.542;2024-03-06T10:19:26;9.00;99.90
4755;DHT22;2391;47.212;7.542;2024-03-06T10:21:55;9.00;99.90
4755;DHT22;2391;47.212;7.542;2024-03-06T10:24:22;9.00;99.90
4755;DHT22;2391;47.212;7.542;2024-03-06T10:26:51;9.10;99.90
4755;DHT22;2391;47.212;7.542;2024-03-06T10:29:21;9.00;99.90
4755;DHT22;2391;47.212;7.542;2024-03-06T10:31:51;9.00;99.90
4755;DHT22;2391;47.212;7.542;2024-03-06T10:34:17;8.90;99.90
4755;DHT22;2391;47.212;7.542;2024-03-06T10:36:43;8.90;99.90
4755;DHT22;2391;47.212;7.542;2024-03-06T10:39:12;8.90;99.90
4755;DHT22;2391;47.212;7.542;2024-03-06T10:41:43;9.00;99.90
4755;DHT22;2391;47.212;7.542;2024-03-06T10:44:11;9.00;99.90
4755;DHT22;2391;47.212;7.542;2024-03-06T10:46:43;8.90;99.90
4755;DHT22;2391;47.212;7.542;2024-03-06T10:49:11;8.90;99.90
4755;DHT22;2391;47.212;7.542;2024-03-06T10:51:43;8.80;99.90
4755;DHT22;2391;47.212;7.542;2024-03-06T10:54:09;8.70;99.90
4755;DHT22;2391;47.212;7.542;2024-03-06T10:56:39;8.90;99.90
4755;DHT22;2391;47.212;7.542;2024-03-06T10:59:11;9.00;99.90
4755;DHT22;2391;47.212;7.542;2024-03-06T11:01:41;9.10;99.90
4755;DHT22;2391;47.212;7.542;2024-03-06T11:04:09;9.20;99.90
4755;DHT22;2391;47.212;7.542;2024-03-06T11:06:38;9.30;99.90
4755;DHT22;2391;47.212;7.542;2024-03-06T11:09:04;9.40;99.00
4755;DHT22;2391;47.212;7.542;2024-03-06T11:11:31;9.40;99.60
4755;DHT22;2391;47.212;7.542;2024-03-06T11:14:05;9.40;99.40
4755;DHT22;2391;47.212;7.542;2024-03-06T11:16:55;9.30;99.90
4755;DHT22;2391;47.212;7.542;2024-03-06T11:19:07;9.30;99.90
4755;DHT22;2391;47.212;7.542;2024-03-06T11:21:33;9.30;99.90
4755;DHT22;2391;47.212;7.542;2024-03-06T11:27:04;9.00;99.90
4755;DHT22;2391;47.212;7.542;2024-03-06T11:30:06;9.10;99.90
4755;DHT22;2391;47.212;7.542;2024-03-06T11:32:58;9.20;99.90
4755;DHT22;2391;47.212;7.542;2024-03-06T11:35:29;9.20;99.90
4755;DHT22;2391;47.212;7.542;2024-03-06T11:37:55;9.10;99.80
4755;DHT22;2391;47.212;7.542;2024-03-06T11:40:25;9.10;99.80
4755;DHT22;2391;47.212;7.542;2024-03-06T11:42:51;9.20;99.90
4755;DHT22;2391;47.212;7.542;2024-03-06T11:45:18;9.40;99.90
4755;DHT22;2391;47.212;7.542;2024-03-06T11:48:00;9.60;99.90
4755;DHT22;2391;47.212;7.542;2024-03-06T11:50:27;9.60;99.50
4755;DHT22;2391;47.212;7.542;2024-03-06T11:52:54;9.60;99.60
4755;DHT22;2391;47.212;7.542;2024-03-06T11:55:22;9.60;99.90
4755;DHT22;2391;47.212;7.542;2024-03-06T11:57:48;9.50;99.50
4755;DHT22;2391;47.212;7.542;2024-03-06T12:00:14;9.50;99.50
4755;DHT22;2391;47.212;7.542;2024-03-06T12:02:40;9.50;99.50
4755;DHT22;2391;47.212;7.542;2024-03-06T12:05:07;9.50;99.60
4755;DHT22;2391;47.212;7.542;2024-03-06T12:07:47;9.50;99.50
4755;DHT22;2391;47.212;7.542;2024-03-06T12:10:13;9.50;99.50
4755;DHT22;2391;47.212;7.542;2024-03-06T12:12:40;9.50;99.60
4755;DHT22;2391;47.212;7.542;2024-03-06T12:15:09;9.50;99.50
4755;DHT22;2391;47.212;7.542;2024-03-06T12:17:47;9.60;98.90
4755;DHT22;2391;47.212;7.542;2024-03-06T12:20:15;9.70;98.20
4755;DHT22;2391;47.212;7.542;2024-03-06T12:22:52;9.70;97.30
4755;DHT22;2391;47.212;7.542;2024-03-06T12:25:23;9.70;96.90
4755;DHT22;2391;47.212;7.542;2024-03-06T12:27:50;9.70;96.70
4755;DHT22;2391;47.212;7.542;2024-03-06T12:30:21;9.60;96.80
4755;DHT22;2391;47.212;7.542;2024-03-06T12:32:58;9.60;97.00
4755;DHT22;2391;47.212;7.542;2024-03-06T12:35:25;9.70;97.00
4755;DHT22;2391;47.212;7.542;2024-03-06T12:37:51;9.80;96.70
4755;DHT22;2391;47.212;7.542;2024-03-06T12:40:20;9.80;96.00
4755;DHT22;2391;47.212;7.542;2024-03-06T12:42:46;9.70;97.40
4755;DHT22;2391;47.212;7.542;2024-03-06T12:45:13;9.70;97.50
4755;DHT22;2391;47.212;7.542;2024-03-06T12:47:42;9.80;96.30
4755;DHT22;2391;47.212;7.542;2024-03-06T12:50:09;9.80;96.60
4755;DHT22;2391;47.212;7.542;2024-03-06T12:52:38;9.80;96.50
4755;DHT22;2391;47.212;7.542;2024-03-06T12:55:04;9.90;96.40
4755;DHT22;2391;47.212;7.542;2024-03-06T12:57:33;10.00;95.70
4755;DHT22;2391;47.212;7.542;2024-03-06T13:00:00;10.10;96.00
4755;DHT22;2391;47.212;7.542;2024-03-06T13:02:26;10.10;96.50
4755;DHT22;2391;47.212;7.542;2024-03-06T13:04:52;10.10;96.50
4755;DHT22;2391;47.212;7.542;2024-03-06T13:07:18;10.10;96.80
4755;DHT22;2391;47.212;7.542;2024-03-06T13:09:44;10.10;97.00
4755;DHT22;2391;47.212;7.542;2024-03-06T13:12:10;10.10;96.80
4755;DHT22;2391;47.212;7.542;2024-03-06T13:14:36;10.20;97.20
4755;DHT22;2391;47.212;7.542;2024-03-06T13:17:02;10.20;97.10
4755;DHT22;2391;47.212;7.542;2024-03-06T13:19:28;10.20;97.10
4755;DHT22;2391;47.212;7.542;2024-03-06T13:21:54;10.30;97.30
4755;DHT22;2391;47.212;7.542;2024-03-06T13:24:20;10.20;97.50
4755;DHT22;2391;47.212;7.542;2024-03-06T13:26:46;10.20;97.60
4755;DHT22;2391;47.212;7.542;2024-03-06T13:29:13;10.10;97.80
4755;DHT22;2391;47.212;7.542;2024-03-06T13:31:39;10.00;97.80
4755;DHT22;2391;47.212;7.542;2024-03-06T13:34:05;10.10;97.80
4755;DHT22;2391;47.212;7.542;2024-03-06T13:36:31;10.10;98.10
4755;DHT22;2391;47.212;7.542;2024-03-06T13:38:57;10.00;98.50
4755;DHT22;2391;47.212;7.542;2024-03-06T13:41:23;10.00;98.40
4755;DHT22;2391;47.212;7.542;2024-03-06T13:43:48;9.90;98.80
4755;DHT22;2391;47.212;7.542;2024-03-06T13:46:14;9.70;99.00
4755;DHT22;2391;47.212;7.542;2024-03-06T13:48:40;9.50;99.00
4755;DHT22;2391;47.212;7.542;2024-03-06T13:51:07;9.40;99.30
4755;DHT22;2391;47.212;7.542;2024-03-06T13:53:33;9.30;98.70
4755;DHT22;2391;47.212;7.542;2024-03-06T13:55:59;9.10;98.90
4755;DHT22;2391;47.212;7.542;2024-03-06T13:58:25;8.90;99.70
4755;DHT22;2391;47.212;7.542;2024-03-06T14:00:52;8.80;99.90
4755;DHT22;2391;47.212;7.542;2024-03-06T14:03:18;8.80;99.90
4755;DHT22;2391;47.212;7.542;2024-03-06T14:05:44;8.90;99.90
4755;DHT22;2391;47.212;7.542;2024-03-06T14:08:09;9.00;99.90
4755;DHT22;2391;47.212;7.542;2024-03-06T14:10:39;9.00;99.90
4755;DHT22;2391;47.212;7.542;2024-03-06T14:13:05;9.10;99.90
4755;DHT22;2391;47.212;7.542;2024-03-06T14:15:32;9.20;99.40
4755;DHT22;2391;47.212;7.542;2024-03-06T14:17:58;9.10;99.30
4755;DHT22;2391;47.212;7.542;2024-03-06T14:20:24;9.10;99.00
4755;DHT22;2391;47.212;7.542;2024-03-06T14:22:50;9.00;99.40
4755;DHT22;2391;47.212;7.542;2024-03-06T14:25:16;9.10;99.60
4755;DHT22;2391;47.212;7.542;2024-03-06T14:27:43;9.20;99.20
4755;DHT22;2391;47.212;7.542;2024-03-06T14:30:09;9.30;99.20
4755;DHT22;2391;47.212;7.542;2024-03-06T14:32:40;9.30;98.80
4755;DHT22;2391;47.212;7.542;2024-03-06T14:35:06;9.40;98.70
4755;DHT22;2391;47.212;7.542;2024-03-06T14:37:33;9.40;99.50
4755;DHT22;2391;47.212;7.542;2024-03-06T14:39:59;9.30;99.70
4755;DHT22;2391;47.212;7.542;2024-03-06T14:42:24;9.40;99.90
4755;DHT22;2391;47.212;7.542;2024-03-06T14:44:50;9.40;99.60
4755;DHT22;2391;47.212;7.542;2024-03-06T14:47:16;9.50;99.40
4755;DHT22;2391;47.212;7.542;2024-03-06T14:49:42;9.60;99.20
4755;DHT22;2391;47.212;7.542;2024-03-06T14:52:12;9.70;99.20
4755;DHT22;2391;47.212;7.542;2024-03-06T14:54:41;9.70;99.50
4755;DHT22;2391;47.212;7.542;2024-03-06T14:57:08;9.60;99.30
4755;DHT22;2391;47.212;7.542;2024-03-06T14:59:34;9.50;99.60
4755;DHT22;2391;47.212;7.542;2024-03-06T15:02:01;9.50;99.90
4755;DHT22;2391;47.212;7.542;2024-03-06T15:04:29;9.50;99.20
4755;DHT22;2391;47.212;7.542;2024-03-06T15:06:55;9.50;99.20
4755;DHT22;2391;47.212;7.542;2024-03-06T15:09:21;9.50;98.30
4755;DHT22;2391;47.212;7.542;2024-03-06T15:11:48;9.50;98.90
4755;DHT22;2391;47.212;7.542;2024-03-06T15:14:14;9.50;99.10
4755;DHT22;2391;47.212;7.542;2024-03-06T15:16:40;9.60;99.20
4755;DHT22;2391;47.212;7.542;2024-03-06T15:19:06;9.50;98.70
4755;DHT22;2391;47.212;7.542;2024-03-06T15:21:32;9.60;98.70
4755;DHT22;2391;47.212;7.542;2024-03-06T15:23:58;9.60;98.50
4755;DHT22;2391;47.212;7.542;2024-03-06T15:26:24;9.60;98.60
4755;DHT22;2391;47.212;7.542;2024-03-06T15:28:50;9.50;98.50
4755;DHT22;2391;47.212;7.542;2024-03-06T15:31:15;9.40;98.70
4755;DHT22;2391;47.212;7.542;2024-03-06T15:33:41;9.50;98.80
4755;DHT22;2391;47.212;7.542;2024-03-06T15:36:08;9.50;98.90
4755;DHT22;2391;47.212;7.542;2024-03-06T15:38:35;9.50;99.10
4755;DHT22;2391;47.212;7.542;2024-03-06T15:41:01;9.60;99.00
4755;DHT22;2391;47.212;7.542;2024-03-06T15:43:26;9.60;99.20
4755;DHT22;2391;47.212;7.542;2024-03-06T15:45:53;9.70;98.90
4755;DHT22;2391;47.212;7.542;2024-03-06T15:48:19;9.70;99.00
4755;DHT22;2391;47.212;7.542;2024-03-06T15:50:45;9.80;98.90
4755;DHT22;2391;47.212;7.542;2024-03-06T15:53:14;9.80;99.10
4755;DHT22;2391;47.212;7.542;2024-03-06T15:55:40;9.90;99.20
4755;DHT22;2391;47.212;7.542;2024-03-06T15:58:06;10.00;98.60
4755;DHT22;2391;47.212;7.542;2024-03-06T16:00:31;10.10;98.20
4755;DHT22;2391;47.212;7.542;2024-03-06T16:02:57;10.00;98.10
4755;DHT22;2391;47.212;7.542;2024-03-06T16:05:24;10.00;98.00
4755;DHT22;2391;47.212;7.542;2024-03-06T16:07:54;10.00;97.90
4755;DHT22;2391;47.212;7.542;2024-03-06T16:10:19;10.00;97.80
4755;DHT22;2391;47.212;7.542;2024-03-06T16:12:46;10.10;97.80
4755;DHT22;2391;47.212;7.542;2024-03-06T16:15:12;10.20;97.70
4755;DHT22;2391;47.212;7.542;2024-03-06T16:17:38;10.30;97.30